createdAt,value
2019-05-01T13:39:35.295Z,19.26
2019-05-01T13:42:05.348Z,20.56
2019-05-01T13:44:34.732Z,22.40
2019-05-01T13:47:04.510Z,23.47
2019-05-01T13:49:33.997Z,23.14
2019-05-01T13:52:03.364Z,25.02
2019-05-01T13:54:32.804Z,23.85
2019-05-01T13:57:02.305Z,24.57
2019-05-01T13:59:31.628Z,24.63
2019-05-01T14:02:01.025Z,23.89
2019-05-01T14:04:30.450Z,23.16
2019-05-01T14:07:00.056Z,22.47
2019-05-01T14:09:32.084Z,22.34
2019-05-01T14:12:01.468Z,22.30
2019-05-01T14:14:30.916Z,21.53
2019-05-01T14:17:00.296Z,21.27
2019-05-01T14:19:29.801Z,21.03
2019-05-01T14:22:24.216Z,21.26
2019-05-01T14:24:56.586Z,21.27
2019-05-01T14:27:25.969Z,21.47
2019-05-01T14:29:55.448Z,21.04
2019-05-01T14:32:24.993Z,20.99
2019-05-01T14:34:54.406Z,20.74
2019-05-01T14:37:29.647Z,20.43
2019-05-01T14:39:55.119Z,20.22
2019-05-01T14:42:24.558Z,20.35
2019-05-01T14:44:53.932Z,20.61
2019-05-01T14:47:23.352Z,20.66
2019-05-01T14:49:52.763Z,20.54
2019-05-01T14:52:22.190Z,20.40
2019-05-01T14:54:51.631Z,19.93
2019-05-01T14:57:21.895Z,19.91
2019-05-01T14:59:51.285Z,19.62
2019-05-01T15:02:20.656Z,19.80
2019-05-01T15:04:50.152Z,19.50
2019-05-01T15:07:19.590Z,19.68
2019-05-01T15:09:49.223Z,19.79
2019-05-01T15:12:18.719Z,19.57
2019-05-01T15:15:09.981Z,19.65
2019-05-01T15:17:47.042Z,19.83
2019-05-01T15:20:16.438Z,19.82
2019-05-01T15:22:45.820Z,19.57
2019-05-01T15:25:15.272Z,20.26
2019-05-01T15:27:44.727Z,20.99
2019-05-01T15:30:18.267Z,20.66
2019-05-01T15:32:47.672Z,20.64
2019-05-01T15:35:17.201Z,20.86
2019-05-01T15:37:56.478Z,20.60
2019-05-01T15:40:30.180Z,20.49
2019-05-01T15:43:14.063Z,20.28
2019-05-01T15:45:43.469Z,19.83
2019-05-01T15:48:12.844Z,19.43
2019-05-01T15:50:44.727Z,19.54
2019-05-01T15:53:13.424Z,19.70
2019-05-01T15:55:42.835Z,19.65
2019-05-01T15:58:12.350Z,19.65
2019-05-01T16:00:41.766Z,19.35
2019-05-01T16:03:11.180Z,19.16
2019-05-01T16:05:40.556Z,19.41
2019-05-01T16:08:10.178Z,19.23
2019-05-01T16:10:47.683Z,19.27
2019-05-01T16:13:17.085Z,19.21
2019-05-01T16:15:46.453Z,19.14
2019-05-01T16:18:15.936Z,19.16
2019-05-01T16:20:46.181Z,19.37
2019-05-01T16:23:15.586Z,19.38
2019-05-01T16:25:45.010Z,19.22
2019-05-01T16:28:14.428Z,19.37
2019-05-01T16:30:44.002Z,19.34
2019-05-01T16:33:13.367Z,19.42
2019-05-01T16:35:42.939Z,19.32
2019-05-01T16:38:23.229Z,19.21
2019-05-01T16:40:59.665Z,19.26
2019-05-01T16:43:29.086Z,19.32
2019-05-01T16:45:59.708Z,19.48
2019-05-01T16:48:29.154Z,19.51
2019-05-01T16:50:58.622Z,19.40
2019-05-01T16:53:28.023Z,19.51
2019-05-01T16:55:57.609Z,19.60
2019-05-01T16:58:27.533Z,19.73
2019-05-01T17:01:04.278Z,19.77
2019-05-01T17:04:05.230Z,19.64
2019-05-01T17:07:08.772Z,20.31
2019-05-01T17:09:56.284Z,21.17
2019-05-01T17:12:30.376Z,21.68
2019-05-01T17:14:59.925Z,21.52
2019-05-01T17:17:29.851Z,21.01
2019-05-01T17:19:59.226Z,21.45
2019-05-01T17:22:28.655Z,21.37
2019-05-01T17:24:58.417Z,20.79
2019-05-01T17:27:27.893Z,20.59
2019-05-01T17:29:57.761Z,20.61
2019-05-01T17:32:33.579Z,21.00
2019-05-01T17:35:06.651Z,20.61
2019-05-01T17:37:34.098Z,20.56
2019-05-01T17:40:03.894Z,20.42
2019-05-01T17:42:37.643Z,20.24
2019-05-01T17:45:04.658Z,20.15
2019-05-01T17:47:34.050Z,20.21
2019-05-01T17:50:03.508Z,19.90
2019-05-01T17:52:33.133Z,19.83
2019-05-01T17:55:02.604Z,19.57
2019-05-01T17:57:33.803Z,19.43
2019-05-01T18:00:05.588Z,19.08
2019-05-01T18:02:45.810Z,18.55
2019-05-01T18:05:33.228Z,18.40
2019-05-01T18:08:02.652Z,18.10
2019-05-01T18:10:34.097Z,18.12
2019-05-01T18:13:03.184Z,18.03
2019-05-01T18:15:32.574Z,17.82
2019-05-01T18:18:01.994Z,17.66
2019-05-01T18:20:31.498Z,17.49
2019-05-01T18:23:13.528Z,17.45
2019-05-01T18:25:49.853Z,17.35
2019-05-01T18:28:53.654Z,17.23
2019-05-01T18:31:28.005Z,17.02
2019-05-01T18:33:56.982Z,16.95
2019-05-01T18:36:33.990Z,16.85
2019-05-01T18:39:17.362Z,16.75
2019-05-01T18:41:52.960Z,16.67
2019-05-01T18:44:22.618Z,16.60
2019-05-01T18:46:52.024Z,16.49
2019-05-01T18:49:21.523Z,16.40
2019-05-01T18:51:51.035Z,16.33
2019-05-01T18:54:20.917Z,16.23
2019-05-01T18:56:50.520Z,16.12
2019-05-01T18:59:20.168Z,15.93
2019-05-01T19:01:49.851Z,15.86
2019-05-01T19:04:23.490Z,15.83
2019-05-01T19:06:50.633Z,15.78
2019-05-01T19:09:29.887Z,15.72
2019-05-01T19:11:51.392Z,15.69
2019-05-01T19:14:23.450Z,15.61
2019-05-01T19:16:53.459Z,15.58
2019-05-01T19:19:22.995Z,15.50
2019-05-01T19:21:52.537Z,15.39
2019-05-01T19:24:22.436Z,15.32
2019-05-01T19:26:51.899Z,15.19
2019-05-01T19:29:21.587Z,15.14
2019-05-01T19:31:51.274Z,15.08
2019-05-01T19:34:20.772Z,15.04
2019-05-01T19:36:51.573Z,14.94
2019-05-01T19:39:21.650Z,14.89
2019-05-01T19:41:54.328Z,14.80
2019-05-01T19:44:22.956Z,14.77
2019-05-01T19:46:52.615Z,14.72
2019-05-01T19:49:24.773Z,14.63
2019-05-01T19:51:55.562Z,14.58
2019-05-01T19:54:28.018Z,14.56
2019-05-01T19:56:55.788Z,14.52
2019-05-01T19:59:25.688Z,14.49
2019-05-01T20:01:55.318Z,14.43
2019-05-01T20:04:24.857Z,14.35
2019-05-01T20:06:53.536Z,14.30
2019-05-01T20:09:23.571Z,14.25
2019-05-01T20:11:53.234Z,14.09
2019-05-01T20:14:22.675Z,14.10
2019-05-01T20:16:52.305Z,14.03
2019-05-01T20:19:21.812Z,14.00
2019-05-01T20:21:51.211Z,13.96
2019-05-01T20:24:20.977Z,13.79
2019-05-01T20:26:50.407Z,13.71
2019-05-01T20:29:20.097Z,13.64
2019-05-01T20:31:50.810Z,13.61
2019-05-01T20:34:20.727Z,13.56
2019-05-01T20:36:50.311Z,13.47
2019-05-01T20:39:19.804Z,13.44
2019-05-01T20:41:49.267Z,13.33
2019-05-01T20:44:23.589Z,13.31
2019-05-01T20:46:49.843Z,13.26
2019-05-01T20:49:19.993Z,13.12
2019-05-01T20:51:49.584Z,13.08
2019-05-01T20:54:19.009Z,13.03
2019-05-01T20:56:56.818Z,12.95
2019-05-01T20:59:26.377Z,12.88
2019-05-01T21:01:59.094Z,12.69
2019-05-01T21:04:45.125Z,12.63
2019-05-01T21:07:21.397Z,12.60
2019-05-01T21:09:56.849Z,12.60
2019-05-01T21:12:22.129Z,12.59
2019-05-01T21:14:51.716Z,12.53
2019-05-01T21:17:21.098Z,12.48
2019-05-01T21:19:50.507Z,12.41
2019-05-01T21:22:19.900Z,12.36
2019-05-01T21:24:49.428Z,12.42
2019-05-01T21:27:18.809Z,12.39
2019-05-01T21:29:48.210Z,12.37
2019-05-01T21:32:18.171Z,12.38
2019-05-01T21:34:48.744Z,12.33
2019-05-01T21:37:18.133Z,12.28
2019-05-01T21:39:47.602Z,12.22
2019-05-01T21:42:16.991Z,12.19
2019-05-01T21:44:46.426Z,12.22
2019-05-01T21:47:15.811Z,12.13
2019-05-01T21:49:45.365Z,12.10
2019-05-01T21:52:17.880Z,12.05
2019-05-01T21:54:50.274Z,12.00
2019-05-01T21:57:19.135Z,11.94
2019-05-01T21:59:48.385Z,11.91
2019-05-01T22:02:17.953Z,11.87
2019-05-01T22:04:47.339Z,11.84
2019-05-01T22:07:16.821Z,11.76
2019-05-01T22:09:50.544Z,11.75
2019-05-01T22:12:17.347Z,11.72
2019-05-01T22:14:56.653Z,11.67
2019-05-01T22:17:57.280Z,11.56
2019-05-01T22:20:33.861Z,11.55
2019-05-01T22:23:06.184Z,11.52
2019-05-01T22:25:39.456Z,11.46
2019-05-01T22:28:20.051Z,11.41
2019-05-01T22:31:07.423Z,11.36
2019-05-01T22:33:37.309Z,11.31
2019-05-01T22:36:06.775Z,11.30
2019-05-01T22:38:36.357Z,11.21
2019-05-01T22:41:12.804Z,11.23
2019-05-01T22:43:42.327Z,11.10
2019-05-01T22:46:19.092Z,11.04
2019-05-01T22:48:48.579Z,11.04
2019-05-01T22:51:21.633Z,10.93
2019-05-01T22:53:57.296Z,10.92
2019-05-01T22:56:26.896Z,10.76
2019-05-01T22:58:56.283Z,10.76
2019-05-01T23:01:26.825Z,10.71
2019-05-01T23:04:01.699Z,10.68
2019-05-01T23:06:31.514Z,10.64
2019-05-01T23:09:00.885Z,10.61
2019-05-01T23:11:32.584Z,10.67
2019-05-01T23:14:01.980Z,10.65
2019-05-01T23:16:36.475Z,10.61
2019-05-01T23:19:05.875Z,10.64
2019-05-01T23:21:35.972Z,10.48
2019-05-01T23:24:06.597Z,10.48
2019-05-01T23:26:36.299Z,10.51
2019-05-01T23:29:05.688Z,10.53
2019-05-01T23:31:35.183Z,10.52
2019-05-01T23:34:04.768Z,10.43
2019-05-01T23:36:34.172Z,10.49
2019-05-01T23:39:05.111Z,10.46
2019-05-01T23:41:45.139Z,10.46
2019-05-01T23:44:06.079Z,10.40
2019-05-01T23:46:35.465Z,10.40
2019-05-01T23:49:04.836Z,10.40
2019-05-01T23:51:34.275Z,10.37
2019-05-01T23:54:03.704Z,10.35
2019-05-01T23:56:35.152Z,10.32
2019-05-01T23:59:04.730Z,10.33
